Time;durP1;ratioP1;P1;durP2;ratioP2;P2;SDS_P1;SDS_P2;PMS_P1;PMS_P2;Temp;Humidity;BMP_temperature;BMP_pressure;BME280_temperature;BME280_humidity;BME280_pressure;Samples;Min_cycle;Max_cycle;Signal;HPM_P1;HPM_P2
2022/12/30 00:00:56;;;;;;;44.50;27.88;;;12.00;99.90;;;;;;5033490;28;20052;-68
2022/12/30 00:04:00;;;;;;;42.65;27.70;;;11.20;99.90;;;;;;5033650;28;20044;-68
2022/12/30 00:07:04;;;;;;;48.92;27.23;;;11.30;99.90;;;;;;5033601;28;20041;-68
2022/12/30 00:10:08;;;;;;;49.53;28.77;;;11.10;99.90;;;;;;5033978;28;20045;-68
2022/12/30 00:33:52;;;;;;;47.90;31.38;;;8.60;99.90;;;;;;5033036;28;20536;-69
2022/12/30 00:36:56;;;;;;;50.17;31.85;;;10.50;99.90;;;;;;5032941;28;20052;-69
2022/12/30 00:40:01;;;;;;;50.90;31.30;;;;;;;;;;5033500;28;20035;-69
2022/12/30 00:43:10;;;;;;;46.30;30.70;;;10.50;99.90;;;;;;5032686;28;20064;-69
2022/12/30 00:46:15;;;;;;;43.15;30.25;;;;;;;;;;5032899;28;20109;-69
2022/12/30 00:56:09;;;;;;;46.75;29.60;;;10.50;99.90;;;;;;5032362;28;20048;-69
2022/12/30 00:59:14;;;;;;;46.27;29.17;;;;;;;;;;5032426;28;20052;-68
2022/12/30 01:02:18;;;;;;;49.47;31.38;;;10.70;99.90;;;;;;5032419;28;20048;-68
2022/12/30 01:05:23;;;;;;;49.30;32.80;;;;;;;;;;5032346;28;20044;-69
2022/12/30 01:08:27;;;;;;;55.92;33.90;;;10.90;99.90;;;;;;5032241;28;20117;-69
2022/12/30 01:11:31;;;;;;;59.47;34.50;;;11.40;99.90;;;;;;5032147;28;20044;-69
2022/12/30 01:14:47;;;;;;;48.05;30.77;;;10.90;99.90;;;;;;5032540;28;20060;-69
2022/12/30 01:17:51;;;;;;;50.63;33.08;;;10.90;99.90;;;;;;5031174;28;20064;-69
2022/12/30 01:20:59;;;;;;;54.30;32.75;;;10.60;99.90;;;;;;5032251;28;20052;-68
2022/12/30 01:24:03;;;;;;;48.17;32.03;;;;;;;;;;5032296;28;20504;-68
2022/12/30 01:27:07;;;;;;;46.70;31.17;;;;;;;;;;5032206;28;20048;-68
2022/12/30 01:30:12;;;;;;;51.67;30.65;;;;;;;;;;5031978;28;20393;-68
2022/12/30 01:33:15;;;;;;;41.75;29.60;;;10.80;99.90;;;;;;5032132;28;20044;-68
2022/12/30 01:36:20;;;;;;;46.58;29.17;;;;;;;;;;5031929;28;20052;-67
2022/12/30 01:39:24;;;;;;;43.78;30.10;;;;;;;;;;5031823;28;20044;-68
2022/12/30 01:42:35;;;;;;;42.88;28.52;;;10.40;99.90;;;;;;5042263;28;20044;-69
2022/12/30 01:45:43;;;;;;;52.00;32.58;;;10.40;99.90;;;;;;5031907;28;20485;-68
2022/12/30 01:48:48;;;;;;;50.47;31.27;;;9.70;99.90;;;;;;5031736;28;20358;-68
2022/12/30 01:51:52;;;;;;;43.92;27.85;;;10.60;99.90;;;;;;5032040;28;20040;-68
2022/12/30 01:55:02;;;;;;;42.00;25.35;;;10.60;99.90;;;;;;5031366;28;20052;-68
2022/12/30 01:58:14;;;;;;;35.97;23.25;;;10.90;99.90;;;;;;5031249;28;20468;-68
2022/12/30 02:01:19;;;;;;;39.03;25.27;;;;;;;;;;5031452;28;20045;-69
2022/12/30 02:04:25;;;;;;;40.50;25.10;;;11.30;99.90;;;;;;5031136;28;20049;-69
2022/12/30 02:07:35;;;;;;;41.72;27.23;;;11.20;99.90;;;;;;5031414;28;20393;-69
2022/12/30 02:10:42;;;;;;;41.30;27.00;;;11.20;99.90;;;;;;5031288;28;20045;-69
2022/12/30 02:13:46;;;;;;;27.27;17.65;;;11.20;99.90;;;;;;5031198;28;20564;-69
2022/12/30 02:17:10;;;;;;;31.63;19.33;;;11.00;99.90;;;;;;5031093;28;20052;-69
2022/12/30 02:20:41;;;;;;;37.95;24.73;;;11.00;99.90;;;;;;5031223;28;20394;-69
2022/12/30 02:24:20;;;;;;;28.15;19.52;;;11.30;99.90;;;;;;5031338;28;20044;-69
2022/12/30 02:28:02;;;;;;;39.50;24.17;;;11.30;99.90;;;;;;5031115;28;20048;-68
2022/12/30 02:31:06;;;;;;;34.95;22.23;;;11.40;99.90;;;;;;5019174;28;20041;-69
2022/12/30 02:34:35;;;;;;;36.03;22.83;;;11.30;99.90;;;;;;5031227;28;20508;-69
2022/12/30 02:38:07;;;;;;;35.72;21.27;;;11.30;99.90;;;;;;5030978;28;20057;-68
2022/12/30 02:45:06;;;;;;;42.63;25.02;;;11.20;99.90;;;;;;5030928;28;20052;-68
2022/12/30 02:48:15;;;;;;;37.72;24.23;;;11.40;99.90;;;;;;5029661;28;20060;-69
2022/12/30 02:54:45;;;;;;;37.03;24.25;;;11.30;99.90;;;;;;5030933;28;20496;-69
2022/12/30 02:57:49;;;;;;;28.23;19.83;;;11.30;99.90;;;;;;5030449;28;20076;-69
2022/12/30 03:05:16;;;;;;;25.20;15.90;;;11.40;99.90;;;;;;4989076;28;20046;-69
2022/12/30 03:08:37;;;;;;;26.70;17.67;;;11.60;99.90;;;;;;4999532;28;20040;-68
2022/12/30 03:12:07;;;;;;;24.73;17.00;;;11.40;99.90;;;;;;5030902;28;20167;-68
2022/12/30 03:15:19;;;;;;;23.27;14.75;;;11.50;99.90;;;;;;5030588;28;20553;-69
2022/12/30 03:18:24;;;;;;;16.75;11.07;;;11.60;99.90;;;;;;5033848;28;20405;-69
2022/12/30 03:21:33;;;;;;;17.65;10.50;;;11.50;99.90;;;;;;5034376;28;20048;-69
2022/12/30 03:28:04;;;;;;;15.15;9.45;;;11.60;99.90;;;;;;5034266;28;20044;-69
2022/12/30 03:31:13;;;;;;;16.60;9.10;;;11.60;99.90;;;;;;5034160;28;20049;-69
2022/12/30 03:34:17;;;;;;;19.55;10.25;;;11.50;99.90;;;;;;5034143;28;20068;-69
2022/12/30 03:37:38;;;;;;;17.98;9.80;;;11.30;99.90;;;;;;5034249;28;20440;-69
2022/12/30 03:40:43;;;;;;;13.20;7.10;;;11.70;99.90;;;;;;5034249;28;20044;-67
2022/12/30 03:43:49;;;;;;;14.65;7.30;;;11.50;99.90;;;;;;5044936;28;20072;-68
2022/12/30 03:46:53;;;;;;;10.48;7.00;;;;;;;;;;5034236;28;20044;-69
2022/12/30 03:49:57;;;;;;;10.18;6.53;;;11.60;99.90;;;;;;5033802;28;20397;-69
2022/12/30 03:53:01;;;;;;;10.63;5.13;;;;;;;;;;5034060;28;20048;-69
2022/12/30 03:56:06;;;;;;;10.20;4.90;;;;;;;;;;5033693;28;20048;-69
2022/12/30 03:59:10;;;;;;;9.70;4.60;;;;;;;;;;5033821;28;20060;-69
2022/12/30 04:02:15;;;;;;;11.63;5.10;;;;;;;;;;5033810;28;20033;-69
2022/12/30 04:05:19;;;;;;;9.48;5.13;;;;;;;;;;5033864;28;20401;-69
2022/12/30 04:08:23;;;;;;;7.65;5.40;;;11.50;99.90;;;;;;5033453;28;20034;-69
2022/12/30 04:11:27;;;;;;;7.28;4.95;;;11.50;99.90;;;;;;5033491;28;20048;-69
2022/12/30 04:14:31;;;;;;;8.15;4.78;;;11.60;99.90;;;;;;5033717;28;20040;-69
2022/12/30 04:17:36;;;;;;;6.32;4.43;;;;;;;;;;5033496;28;20048;-69
2022/12/30 04:20:40;;;;;;;10.45;4.72;;;11.60;99.90;;;;;;5044164;28;20025;-69
2022/12/30 04:23:44;;;;;;;7.22;4.47;;;;;;;;;;5034063;28;20049;-69
2022/12/30 04:26:48;;;;;;;7.60;4.90;;;11.60;99.90;;;;;;5032604;28;20042;-69
2022/12/30 04:29:53;;;;;;;7.03;5.18;;;;;;;;;;5033120;28;20040;-69
2022/12/30 04:32:57;;;;;;;13.77;5.20;;;;;;;;;;5033015;28;20037;-69
2022/12/30 04:36:01;;;;;;;10.27;5.15;;;;;;;;;;5032955;28;20151;-69
2022/12/30 04:39:05;;;;;;;10.68;4.70;;;11.50;99.90;;;;;;5033162;28;20057;-68
2022/12/30 04:42:09;;;;;;;9.70;5.57;;;11.40;99.90;;;;;;5032997;28;20044;-69
2022/12/30 04:45:13;;;;;;;8.25;5.53;;;8.40;99.90;;;;;;5032839;28;20064;-69
2022/12/30 04:48:17;;;;;;;8.27;5.18;;;11.40;99.90;;;;;;5032063;28;20034;-69
2022/12/30 04:51:22;;;;;;;12.57;6.15;;;11.40;99.90;;;;;;5032711;28;20082;-69
2022/12/30 04:54:27;;;;;;;9.07;6.05;;;;;;;;;;5032821;28;20057;-69
2022/12/30 04:57:31;;;;;;;12.05;7.22;;;11.20;99.90;;;;;;5032434;28;20050;-69
2022/12/30 05:00:35;;;;;;;13.63;7.38;;;11.20;99.90;;;;;;5032719;28;20496;-69
2022/12/30 05:03:39;;;;;;;11.18;7.45;;;11.20;99.90;;;;;;5032490;28;20053;-69
2022/12/30 05:06:43;;;;;;;17.60;8.52;;;11.20;99.90;;;;;;5032363;28;20060;-69
2022/12/30 05:09:47;;;;;;;13.77;7.90;;;12.40;99.90;;;;;;5032231;28;20044;-69
2022/12/30 05:12:51;;;;;;;16.30;8.40;;;;;;;;;;5032188;28;20052;-69
2022/12/30 05:15:55;;;;;;;14.25;8.23;;;13.30;99.90;;;;;;5032255;28;20044;-69
2022/12/30 05:18:59;;;;;;;14.52;9.13;;;11.40;99.90;;;;;;5032328;28;20060;-69
2022/12/30 05:22:03;;;;;;;14.38;8.00;;;;;;;;;;5032456;28;20381;-69
2022/12/30 05:28:30;;;;;;;15.52;8.32;;;;;;;;;;5031158;28;20078;-69
2022/12/30 05:31:35;;;;;;;14.85;10.00;;;;;;;;;;5031971;28;20048;-69
2022/12/30 05:34:39;;;;;;;18.92;10.43;;;;;;;;;;5031995;28;20036;-69
2022/12/30 05:37:43;;;;;;;14.43;9.00;;;;;;;;;;5031728;28;20049;-69
2022/12/30 05:40:48;;;;;;;14.27;10.40;;;;;;;;;;5031287;28;20373;-69
2022/12/30 05:43:52;;;;;;;17.30;12.20;;;;;;;;;;5031790;28;20064;-69
2022/12/30 05:46:56;;;;;;;17.85;12.48;;;;;;;;;;5031592;28;20040;-69
2022/12/30 05:50:00;;;;;;;17.50;12.32;;;12.50;99.90;;;;;;5031814;28;20040;-69
2022/12/30 05:53:05;;;;;;;26.83;13.27;;;;;;;;;;5031491;28;20389;-69
2022/12/30 05:56:09;;;;;;;20.25;13.07;;;;;;;;;;5031269;28;20060;-69
2022/12/30 05:59:13;;;;;;;18.58;11.80;;;12.00;99.90;;;;;;5031532;28;20056;-68
2022/12/30 06:02:17;;;;;;;17.55;11.45;;;;;;;;;;5042187;28;20048;-69
2022/12/30 06:05:22;;;;;;;16.23;11.20;;;;;;;;;;5031300;28;20500;-68
2022/12/30 06:08:26;;;;;;;18.83;11.40;;;11.80;99.90;;;;;;5031344;28;20052;-69
2022/12/30 06:11:30;;;;;;;18.25;12.35;;;;;;;;;;5031446;28;20052;-69
2022/12/30 06:14:35;;;;;;;19.00;11.52;;;;;;;;;;5031148;28;20044;-69
2022/12/30 06:17:39;;;;;;;22.08;12.20;;;;;;;;;;5031195;28;20504;-69
2022/12/30 06:20:47;;;;;;;21.30;13.77;;;11.70;99.90;;;;;;5031233;28;20044;-69
2022/12/30 06:23:51;;;;;;;24.58;13.30;;;;;;;;;;5031621;28;20295;-68
2022/12/30 06:26:55;;;;;;;23.20;14.88;;;9.70;99.90;;;;;;5031036;28;20220;-69
2022/12/30 06:30:00;;;;;;;28.08;17.13;;;;;;;;;;5031087;28;20048;-68
2022/12/30 06:33:04;;;;;;;39.05;21.88;;;;;;;;;;5031105;28;20048;-69
2022/12/30 06:36:09;;;;;;;31.00;19.75;;;11.80;99.90;;;;;;5031233;28;20204;-68
2022/12/30 06:39:13;;;;;;;28.02;18.33;;;;;;;;;;5030382;28;20049;-68
2022/12/30 06:42:17;;;;;;;27.95;20.00;;;;;;;;;;5031323;28;20072;-69
2022/12/30 06:45:22;;;;;;;29.50;19.45;;;;;;;;;;5030881;28;20044;-68
2022/12/30 06:48:26;;;;;;;33.85;21.25;;;11.70;99.90;;;;;;5030641;28;20044;-68
2022/12/30 06:51:30;;;;;;;28.85;21.65;;;14.30;99.90;;;;;;5042063;28;20044;-68
2022/12/30 06:54:34;;;;;;;34.03;22.80;;;;;;;;;;5034644;28;20100;-68
2022/12/30 06:57:39;;;;;;;37.40;22.13;;;;;;;;;;5034643;28;20056;-69
2022/12/30 07:00:43;;;;;;;34.67;22.55;;;11.90;99.90;;;;;;5034618;28;20040;-69
2022/12/30 07:03:47;;;;;;;35.83;25.70;;;;;;;;;;5034805;28;20048;-69
2022/12/30 07:06:51;;;;;;;41.92;28.00;;;;;;;;;;5034404;28;20295;-68
2022/12/30 07:09:55;;;;;;;57.15;35.15;;;;;;;;;;5034306;28;20044;-69
2022/12/30 07:13:00;;;;;;;60.72;37.17;;;;;;;;;;5034822;28;20044;-69
2022/12/30 07:16:04;;;;;;;56.97;38.53;;;11.80;99.90;;;;;;5034659;28;20044;-69
2022/12/30 07:19:08;;;;;;;55.00;32.13;;;12.00;99.90;;;;;;5034197;28;20496;-68
2022/12/30 07:22:13;;;;;;;48.08;31.02;;;14.60;99.90;;;;;;5034269;28;20108;-68
2022/12/30 07:25:18;;;;;;;55.72;36.22;;;;;;;;;;5034268;28;20060;-68
2022/12/30 07:28:22;;;;;;;39.70;23.95;;;;;;;;;;5033927;28;20041;-71
2022/12/30 07:31:26;;;;;;;35.00;22.92;;;12.00;99.90;;;;;;5034443;28;20468;-70
2022/12/30 07:34:31;;;;;;;31.92;22.10;;;;;;;;;;5034109;28;20044;-69
2022/12/30 07:37:35;;;;;;;35.67;24.40;;;12.30;99.90;;;;;;5033994;28;20053;-68
2022/12/30 07:40:39;;;;;;;35.70;23.05;;;12.20;99.90;;;;;;5033589;28;20057;-68
2022/12/30 07:43:43;;;;;;;34.10;24.33;;;13.10;99.90;;;;;;5033813;28;20060;-69
2022/12/30 07:46:47;;;;;;;35.78;22.70;;;;;;;;;;5032383;28;20064;-66
2022/12/30 07:49:51;;;;;;;33.40;22.92;;;12.40;99.90;;;;;;5033706;28;20044;-68
2022/12/30 07:52:55;;;;;;;31.77;21.13;;;13.00;99.90;;;;;;5033709;28;20500;-69
2022/12/30 07:56:05;;;;;;;33.40;19.02;;;12.50;99.90;;;;;;5033592;28;20417;-71
2022/12/30 07:59:12;;;;;;;35.05;18.70;;;11.80;99.90;;;;;;5033523;28;20409;-70
2022/12/30 08:02:15;;;;;;;37.78;19.20;;;12.70;99.90;;;;;;5033324;28;20044;-70
2022/12/30 08:05:19;;;;;;;30.98;19.33;;;12.70;99.90;;;;;;5032933;28;20044;-70
2022/12/30 08:08:27;;;;;;;29.23;18.30;;;12.70;99.90;;;;;;5033384;28;20048;-70
2022/12/30 08:11:31;;;;;;;31.98;18.25;;;12.90;99.90;;;;;;5044199;28;20052;-70
2022/12/30 08:14:35;;;;;;;25.10;18.52;;;13.00;99.90;;;;;;5033419;28;20045;-70
2022/12/30 08:17:40;;;;;;;30.83;18.33;;;13.70;99.90;;;;;;5033147;28;20057;-70
2022/12/30 08:20:44;;;;;;;27.92;17.33;;;13.30;99.90;;;;;;5033418;28;20048;-70
2022/12/30 08:23:48;;;;;;;32.90;19.63;;;13.70;99.90;;;;;;5032895;28;20052;-70
2022/12/30 08:26:52;;;;;;;31.08;19.15;;;13.70;99.90;;;;;;5032472;28;20044;-68
2022/12/30 08:29:56;;;;;;;25.75;16.98;;;13.90;99.90;;;;;;5032768;28;20056;-70
2022/12/30 08:33:00;;;;;;;22.67;13.85;;;14.20;99.90;;;;;;5032991;28;20044;-68
2022/12/30 08:36:07;;;;;;;25.45;15.00;;;14.40;99.90;;;;;;5033017;28;20056;-68
2022/12/30 08:39:12;;;;;;;26.02;13.93;;;14.50;99.90;;;;;;5032508;28;20413;-69
2022/12/30 08:42:16;;;;;;;20.63;13.15;;;14.80;99.90;;;;;;5032712;28;20040;-68
2022/12/30 08:45:20;;;;;;;22.10;12.48;;;15.00;99.90;;;;;;5032808;28;20108;-69
2022/12/30 08:48:24;;;;;;;19.83;11.82;;;15.20;99.90;;;;;;5032464;28;20040;-69
2022/12/30 08:51:29;;;;;;;18.23;12.25;;;15.40;99.90;;;;;;5032827;28;20049;-67
2022/12/30 08:54:33;;;;;;;44.63;13.27;;;15.50;99.90;;;;;;5032599;28;20064;-68
2022/12/30 08:57:38;;;;;;;24.35;12.55;;;15.80;99.90;;;;;;5032177;28;20060;-69
2022/12/30 09:00:43;;;;;;;19.38;10.77;;;16.00;99.90;;;;;;5032665;28;20056;-68
2022/12/30 09:03:48;;;;;;;15.13;10.13;;;16.10;99.90;;;;;;5032798;28;20056;-68
2022/12/30 09:06:52;;;;;;;12.73;7.28;;;16.10;99.90;;;;;;5032318;28;20044;-69
2022/12/30 09:09:56;;;;;;;10.18;6.40;;;16.10;99.90;;;;;;5032078;28;20044;-70
2022/12/30 09:13:00;;;;;;;10.95;6.97;;;16.20;99.90;;;;;;5032243;28;20045;-68
2022/12/30 09:16:10;;;;;;;10.27;7.25;;;16.20;99.90;;;;;;5031781;28;20041;-67
2022/12/30 09:19:16;;;;;;;11.25;7.43;;;16.20;99.90;;;;;;5031897;28;20056;-67
2022/12/30 09:22:20;;;;;;;15.55;6.80;;;16.20;99.90;;;;;;5032102;28;20048;-69
2022/12/30 09:25:23;;;;;;;10.90;6.43;;;16.10;99.90;;;;;;5032076;28;20128;-69
2022/12/30 09:28:27;;;;;;;8.70;6.13;;;16.10;99.90;;;;;;5031870;28;20048;-70
2022/12/30 09:31:31;;;;;;;8.43;5.47;;;16.00;99.90;;;;;;5031795;28;20049;-68
2022/12/30 09:34:36;;;;;;;14.98;6.53;;;15.90;99.90;;;;;;5031603;28;20037;-63
2022/12/30 09:37:40;;;;;;;11.68;6.38;;;15.90;99.90;;;;;;5031872;28;20060;-66
2022/12/30 09:41:00;;;;;;;11.70;5.85;;;15.90;99.90;;;;;;5031629;28;20389;-66
2022/12/30 09:44:14;;;;;;;14.33;7.30;;;15.90;99.90;;;;;;5031640;28;20052;-66
2022/12/30 09:47:29;;;;;;;13.68;7.32;;;16.00;99.90;;;;;;5031528;28;20504;-66
2022/12/30 09:50:42;;;;;;;16.45;8.27;;;16.10;99.90;;;;;;5031640;28;20397;-66
2022/12/30 09:53:56;;;;;;;12.18;8.18;;;16.30;99.90;;;;;;5031364;28;20048;-66
2022/12/30 09:57:30;;;;;;;18.83;11.70;;;16.40;99.90;;;;;;5030964;28;20284;-65
2022/12/30 10:00:32;;;;;;;16.33;8.63;;;16.60;99.90;;;;;;5031271;28;20144;-66
2022/12/30 10:03:36;;;;;;;23.70;11.27;;;16.70;99.90;;;;;;5031126;28;20048;-66
2022/12/30 10:07:02;;;;;;;19.67;11.45;;;17.00;99.90;;;;;;5031245;28;20040;-66
2022/12/30 10:10:27;;;;;;;14.10;8.80;;;17.20;99.90;;;;;;5031681;28;20472;-65
2022/12/30 10:13:48;;;;;;;16.55;7.93;;;17.40;99.90;;;;;;5031379;28;20049;-66
2022/12/30 10:17:26;;;;;;;12.98;7.30;;;17.60;99.90;;;;;;5031016;28;20052;-65
2022/12/30 10:20:48;;;;;;;11.70;7.03;;;17.80;99.90;;;;;;5031054;28;20527;-66
2022/12/30 10:24:13;;;;;;;10.32;6.30;;;17.90;99.90;;;;;;5030954;28;20036;-67
2022/12/30 10:27:23;;;;;;;11.45;6.43;;;17.90;99.80;;;;;;5030902;28;20068;-66
2022/12/30 10:30:36;;;;;;;16.93;7.80;;;18.00;99.90;;;;;;5031042;28;20053;-67
2022/12/30 10:33:40;;;;;;;17.27;6.85;;;18.00;99.80;;;;;;5029774;28;20044;-66
2022/12/30 10:36:53;;;;;;;7.28;4.28;;;17.90;99.90;;;;;;5030061;28;20056;-67
2022/12/30 10:39:59;;;;;;;10.93;4.43;;;17.80;99.30;;;;;;5029698;28;20445;-65
2022/12/30 10:43:18;;;;;;;8.80;4.60;;;17.70;98.90;;;;;;5030837;28;20049;-66
2022/12/30 10:46:55;;;;;;;12.52;4.80;;;17.70;98.80;;;;;;5030596;28;20044;-66
2022/12/30 10:50:25;;;;;;;10.68;4.75;;;17.60;99.10;;;;;;5024107;28;20426;-66
2022/12/30 10:53:31;;;;;;;13.15;5.50;;;17.60;99.40;;;;;;5030645;28;20041;-67
2022/12/30 10:56:36;;;;;;;11.95;5.03;;;17.90;99.70;;;;;;5030509;28;20056;-66
2022/12/30 10:59:40;;;;;;;10.75;4.50;;;18.10;99.70;;;;;;5030052;28;20045;-67
2022/12/30 11:02:56;;;;;;;9.60;4.80;;;18.30;99.30;;;;;;5029156;28;20048;-68
2022/12/30 11:06:26;;;;;;;7.90;4.82;;;18.50;98.80;;;;;;5028846;28;20376;-67
2022/12/30 11:09:30;;;;;;;11.63;6.75;;;18.60;98.70;;;;;;5029392;28;20044;-67
2022/12/30 11:15:57;;;;;;;7.43;3.80;;;18.70;97.90;;;;;;5030033;28;20233;-69
2022/12/30 11:19:04;;;;;;;15.88;4.88;;;18.80;97.80;;;;;;5030028;28;20516;-69
2022/12/30 11:22:10;;;;;;;11.63;4.53;;;18.80;97.80;;;;;;5030302;28;20489;-68
2022/12/30 11:25:29;;;;;;;17.13;4.50;;;18.80;97.70;;;;;;5030338;28;20409;-69
2022/12/30 11:28:37;;;;;;;18.50;4.93;;;18.70;97.60;;;;;;5029720;28;20299;-69
2022/12/30 11:31:47;;;;;;;16.38;5.60;;;18.60;97.60;;;;;;5030184;28;20500;-67
2022/12/30 11:34:51;;;;;;;10.43;4.32;;;18.50;97.80;;;;;;5030166;28;20041;-67
2022/12/30 11:37:55;;;;;;;11.30;4.20;;;18.40;98.00;;;;;;5030773;28;20044;-69
2022/12/30 11:41:17;;;;;;;8.82;4.30;;;18.30;97.90;;;;;;5033940;28;20040;-69
2022/12/30 11:44:24;;;;;;;12.48;3.90;;;18.20;98.20;;;;;;5034068;28;20044;-69
2022/12/30 11:47:27;;;;;;;6.60;3.58;;;18.10;98.10;;;;;;5034163;28;20052;-69
2022/12/30 11:50:31;;;;;;;9.73;3.90;;;18.10;98.20;;;;;;5033673;28;20040;-69
2022/12/30 11:53:36;;;;;;;5.30;3.05;;;18.00;98.20;;;;;;5033803;28;20068;-69
2022/12/30 11:57:01;;;;;;;13.75;4.15;;;18.00;98.10;;;;;;5033690;28;20060;-69
2022/12/30 12:00:35;;;;;;;7.10;4.05;;;18.00;98.10;;;;;;5033603;28;20496;-69
2022/12/30 12:03:53;;;;;;;9.73;4.32;;;18.00;98.10;;;;;;5033681;28;20112;-69
2022/12/30 12:06:59;;;;;;;10.80;3.85;;;17.90;98.10;;;;;;5033636;28;20044;-69
2022/12/30 12:10:15;;;;;;;8.00;4.35;;;17.90;98.20;;;;;;5033436;28;20060;-69
2022/12/30 12:13:48;;;;;;;6.57;4.00;;;17.90;98.50;;;;;;5033253;28;20052;-69
2022/12/30 12:17:37;;;;;;;9.80;4.07;;;17.90;98.70;;;;;;5033149;28;20500;-69
2022/12/30 12:20:46;;;;;;;7.10;3.70;;;18.00;98.80;;;;;;5033095;28;20052;-69
2022/12/30 12:24:06;;;;;;;5.88;4.07;;;18.10;98.70;;;;;;5031892;28;20528;-69
2022/12/30 12:27:16;;;;;;;7.15;3.85;;;18.00;98.20;;;;;;5033421;28;20052;-69
2022/12/30 12:30:20;;;;;;;5.87;3.10;;;18.00;98.20;;;;;;5032512;28;20040;-68
2022/12/30 12:33:39;;;;;;;10.88;3.85;;;17.90;98.20;;;;;;5032837;28;20044;-68
2022/12/30 12:36:57;;;;;;;9.95;3.50;;;18.00;98.50;;;;;;5043486;28;20060;-69
2022/12/30 12:40:14;;;;;;;10.10;3.72;;;18.00;98.60;;;;;;5032816;28;20056;-69
2022/12/30 12:43:21;;;;;;;6.47;4.28;;;18.00;98.60;;;;;;5033056;28;20121;-68
2022/12/30 12:46:53;;;;;;;9.70;3.75;;;17.90;98.60;;;;;;5033447;28;20528;-67
2022/12/30 12:49:57;;;;;;;8.60;3.92;;;17.80;98.40;;;;;;5028308;28;20056;-68
2022/12/30 12:53:16;;;;;;;9.45;3.80;;;17.80;98.40;;;;;;5043097;28;20045;-69
2022/12/30 12:56:55;;;;;;;13.85;4.72;;;17.80;98.80;;;;;;5032652;28;20052;-68
2022/12/30 13:00:08;;;;;;;7.63;4.75;;;17.80;99.20;;;;;;5032515;28;20048;-68
2022/12/30 13:03:38;;;;;;;6.97;4.68;;;17.70;99.50;;;;;;5032203;28;20060;-68
2022/12/30 13:07:01;;;;;;;12.68;4.90;;;17.80;99.80;;;;;;5020562;28;20052;-68
2022/12/30 13:10:33;;;;;;;15.90;4.95;;;17.70;99.70;;;;;;5032572;28;20056;-68
2022/12/30 13:13:50;;;;;;;15.95;5.07;;;17.70;99.50;;;;;;5032156;28;20116;-68
2022/12/30 13:16:58;;;;;;;9.20;4.25;;;17.70;99.60;;;;;;5032468;28;20401;-68
2022/12/30 13:20:14;;;;;;;8.07;4.88;;;17.70;99.70;;;;;;5031968;28;20068;-68
2022/12/30 13:23:27;;;;;;;9.52;4.43;;;17.70;99.80;;;;;;5031497;28;20048;-68
2022/12/30 13:26:50;;;;;;;8.30;4.10;;;17.70;99.90;;;;;;5031477;28;20056;-69
2022/12/30 13:29:56;;;;;;;9.07;4.88;;;17.70;99.90;;;;;;5031304;28;20064;-69
2022/12/30 13:33:18;;;;;;;10.60;6.22;;;17.60;99.90;;;;;;5029942;28;20037;-68
2022/12/30 13:36:35;;;;;;;8.85;4.68;;;17.70;99.90;;;;;;5031933;28;20052;-68
2022/12/30 13:39:48;;;;;;;12.20;4.60;;;17.70;99.90;;;;;;5030700;28;20053;-68
2022/12/30 13:43:03;;;;;;;11.15;5.45;;;17.60;99.90;;;;;;5032117;28;20044;-68
2022/12/30 13:46:37;;;;;;;9.52;4.90;;;17.60;99.90;;;;;;5031815;28;20060;-68
2022/12/30 13:49:41;;;;;;;12.80;5.30;;;17.60;99.90;;;;;;5031484;28;20053;-68
2022/12/30 13:52:54;;;;;;;6.78;4.10;;;17.60;99.90;;;;;;5032049;28;20488;-68
2022/12/30 13:55:58;;;;;;;5.57;4.35;;;17.60;99.90;;;;;;5031396;28;20048;-68
2022/12/30 13:59:04;;;;;;;9.38;4.55;;;17.60;99.90;;;;;;5031347;28;20068;-68
2022/12/30 14:02:20;;;;;;;9.27;4.25;;;17.50;99.90;;;;;;5031139;28;20120;-68
2022/12/30 14:05:39;;;;;;;6.93;3.85;;;17.50;99.90;;;;;;5031439;28;20048;-69
2022/12/30 14:08:45;;;;;;;5.97;4.53;;;17.50;99.90;;;;;;5031335;28;20148;-69
2022/12/30 14:12:04;;;;;;;7.35;4.70;;;17.50;99.90;;;;;;5031327;28;20048;-69
2022/12/30 14:15:30;;;;;;;9.55;5.55;;;17.40;99.90;;;;;;5031178;28;20052;-69
2022/12/30 14:18:53;;;;;;;14.80;5.20;;;17.40;99.90;;;;;;5030996;28;20052;-68
2022/12/30 14:21:57;;;;;;;12.13;4.53;;;17.40;99.90;;;;;;5031369;28;20048;-68
2022/12/30 14:25:22;;;;;;;10.70;5.28;;;17.40;99.90;;;;;;5031194;28;20052;-68
2022/12/30 14:28:27;;;;;;;12.75;5.75;;;17.40;99.90;;;;;;5031029;28;20237;-69
2022/12/30 14:31:35;;;;;;;7.13;4.60;;;17.30;99.90;;;;;;5030112;28;20041;-68
2022/12/30 14:34:42;;;;;;;7.35;4.68;;;17.30;99.90;;;;;;5031072;28;20066;-69
2022/12/30 14:37:46;;;;;;;9.80;4.80;;;17.30;99.90;;;;;;5031093;28;20117;-68
2022/12/30 14:41:06;;;;;;;8.55;4.65;;;17.30;99.90;;;;;;5031263;28;20409;-70
2022/12/30 14:44:14;;;;;;;13.00;6.55;;;17.30;99.90;;;;;;5030990;28;20044;-69
2022/12/30 14:47:40;;;;;;;9.15;4.90;;;17.30;99.90;;;;;;5030540;28;20548;-68
2022/12/30 14:50:46;;;;;;;16.35;5.72;;;17.20;99.90;;;;;;5030633;28;20040;-67
2022/12/30 14:53:50;;;;;;;9.45;4.90;;;17.20;99.90;;;;;;5030423;28;20040;-68
2022/12/30 14:57:01;;;;;;;9.20;5.82;;;17.20;99.90;;;;;;5030560;28;20071;-68
2022/12/30 15:00:11;;;;;;;20.43;8.50;;;17.20;99.90;;;;;;5030514;28;20056;-68
2022/12/30 15:03:18;;;;;;;14.23;7.53;;;17.20;99.90;;;;;;5030828;28;20496;-67
2022/12/30 15:06:22;;;;;;;10.70;6.20;;;17.10;99.90;;;;;;5030573;28;20045;-69
2022/12/30 15:09:27;;;;;;;15.13;7.15;;;17.10;99.90;;;;;;5030419;28;20052;-69
2022/12/30 15:12:32;;;;;;;10.13;6.03;;;17.10;99.90;;;;;;5030525;28;20504;-68
2022/12/30 15:15:37;;;;;;;8.25;5.57;;;17.00;99.90;;;;;;5034776;28;20108;-69
2022/12/30 15:19:02;;;;;;;16.77;7.55;;;17.00;99.90;;;;;;5034377;28;20080;-69
2022/12/30 15:22:15;;;;;;;14.10;7.82;;;17.00;99.90;;;;;;5034326;28;20037;-70
2022/12/30 15:25:21;;;;;;;18.60;8.10;;;16.90;99.90;;;;;;5033632;28;20052;-69
2022/12/30 15:28:27;;;;;;;21.98;8.15;;;16.90;99.90;;;;;;5032937;28;20076;-70
2022/12/30 15:31:31;;;;;;;11.35;8.07;;;16.90;99.90;;;;;;5033322;28;20036;-70
2022/12/30 15:34:38;;;;;;;14.23;8.55;;;16.80;99.90;;;;;;5034144;28;20504;-70
2022/12/30 15:37:48;;;;;;;21.13;8.65;;;16.70;99.90;;;;;;5033690;28;20053;-70
2022/12/30 15:40:57;;;;;;;18.80;10.38;;;16.70;99.90;;;;;;5033955;28;20292;-70
2022/12/30 15:44:05;;;;;;;24.05;9.68;;;16.60;99.90;;;;;;5034012;28;20049;-70
2022/12/30 15:47:22;;;;;;;25.55;13.43;;;16.60;99.90;;;;;;5034108;28;20249;-70
2022/12/30 15:50:37;;;;;;;27.92;12.60;;;16.50;99.90;;;;;;5034270;28;20056;-70
2022/12/30 15:54:16;;;;;;;27.63;11.40;;;16.40;99.90;;;;;;5033643;28;20044;-70
2022/12/30 15:57:35;;;;;;;23.48;11.77;;;16.40;99.90;;;;;;5033611;28;20056;-70
2022/12/30 16:00:38;;;;;;;22.38;12.85;;;16.40;99.90;;;;;;5033447;28;20507;-70
2022/12/30 16:03:54;;;;;;;28.10;13.38;;;16.30;99.90;;;;;;5033545;28;20497;-70
2022/12/30 16:06:58;;;;;;;20.48;12.15;;;16.30;99.90;;;;;;5033664;28;20048;-72
2022/12/30 16:10:11;;;;;;;36.55;13.10;;;16.20;99.90;;;;;;5032480;28;20060;-71
2022/12/30 16:13:36;;;;;;;28.83;13.70;;;16.20;99.90;;;;;;5033715;28;20040;-68
2022/12/30 16:16:41;;;;;;;35.22;14.70;;;16.20;99.90;;;;;;5033481;28;20064;-71
2022/12/30 16:19:44;;;;;;;30.10;16.98;;;16.10;99.90;;;;;;5032955;28;20076;-66
2022/12/30 16:22:48;;;;;;;26.90;14.10;;;16.10;99.90;;;;;;5043942;28;20048;-68
2022/12/30 16:25:55;;;;;;;22.02;13.48;;;16.10;99.90;;;;;;5032993;28;20057;-68
2022/12/30 16:29:17;;;;;;;20.42;13.82;;;16.10;99.90;;;;;;5033059;28;20048;-65
2022/12/30 16:32:27;;;;;;;25.88;13.18;;;16.10;99.90;;;;;;5033051;28;20555;-67
2022/12/30 16:35:30;;;;;;;19.08;12.02;;;16.10;99.90;;;;;;5033109;28;20057;-68
2022/12/30 16:38:50;;;;;;;40.38;22.58;;;16.10;99.90;;;;;;5032865;28;20060;-65
2022/12/30 16:41:54;;;;;;;44.70;27.60;;;16.10;99.90;;;;;;5032953;28;20056;-66
2022/12/30 16:44:58;;;;;;;37.35;22.83;;;16.00;99.90;;;;;;5032578;28;20064;-65
2022/12/30 16:48:02;;;;;;;50.28;31.67;;;16.00;99.90;;;;;;5032912;28;20040;-67
2022/12/30 16:51:16;;;;;;;44.05;25.85;;;16.00;99.90;;;;;;5032524;28;20041;-67
2022/12/30 16:54:22;;;;;;;56.47;33.17;;;15.80;99.90;;;;;;5032637;28;20064;-68
2022/12/30 16:57:26;;;;;;;53.45;31.85;;;15.80;99.90;;;;;;5032383;28;20509;-68
2022/12/30 17:00:30;;;;;;;57.10;34.15;;;15.70;99.90;;;;;;5032278;28;20056;-66
2022/12/30 17:03:34;;;;;;;46.83;30.80;;;15.70;99.90;;;;;;5032195;28;20036;-65
2022/12/30 17:06:38;;;;;;;55.97;33.53;;;15.70;99.90;;;;;;5032503;28;20044;-66
2022/12/30 17:13:11;;;;;;;53.35;32.92;;;15.40;99.90;;;;;;5043008;28;20052;-68
2022/12/30 17:16:22;;;;;;;49.80;31.30;;;15.40;99.90;;;;;;5032049;28;20037;-64
2022/12/30 17:19:27;;;;;;;53.28;32.67;;;15.20;99.90;;;;;;5031923;28;20504;-68
2022/12/30 17:22:31;;;;;;;50.13;31.15;;;15.30;99.90;;;;;;5032078;28;20048;-65